Regal Star — ESCM — position and weather

sailwx.info

Track history (hours):
 
Tides and Currents Weather Stations Pressure Air Temp Water Temp Dewpoint Dewpoint Depression Visibility Wind Speed Wind Dir Waves Ship Positions

Regal Star

Last reported at 2017-Apr-25 04:50 UTC. Time now 2017-Apr-25 20:27 UTC.
Position N 59°23' E 023°31'.

Length 157 m; draft 5.9 m.

Type: Ship (hazmat cat D). MMSI: 276554000.

Date/timePositionNaut miles runAvg speedWind from/ knotsBaromVisibWave heightAir tempDewpointWater temp
2017-Apr-25 04:50N 59°23' E 023°31'11913.8
2017-Apr-24 20:14N 59°45' E 019°41'413.8
2017-Apr-24 19:59N 59°46' E 019°34'714.1
2017-Apr-24 19:30N 59°46' E 019°20'714.6
2017-Apr-24 19:00N 59°43' E 019°07'1 2.4
2017-Apr-24 18:29N 59°43' E 019°04'0 0.0
2017-Apr-24 17:59N 59°43' E 019°04'0 0.0
2017-Apr-24 17:29N 59°43' E 019°04'0 0.0
2017-Apr-24 16:59N 59°43' E 019°04'0 0.0
2017-Apr-24 16:29N 59°43' E 019°04'0 0.0
2017-Apr-24 15:59N 59°43' E 019°04'0 0.0
2017-Apr-24 15:29N 59°43' E 019°04'0 0.0
2017-Apr-24 14:59N 59°43' E 019°04'0 0.0
2017-Apr-24 14:29N 59°43' E 019°04'0 0.0
2017-Apr-24 11:14N 59°43' E 019°04'0 0.0
2017-Apr-24 10:59N 59°43' E 019°04'0 0.0
2017-Apr-24 10:26N 59°43' E 019°04'0 0.0
2017-Apr-24 09:59N 59°43' E 019°04'0 0.0
2017-Apr-24 09:26N 59°43' E 019°04'0 0.0
2017-Apr-24 08:59N 59°43' E 019°04'0 0.0
2017-Apr-24 08:29N 59°43' E 019°04'0 0.0
2017-Apr-24 07:59N 59°43' E 019°04'0 0.0
2017-Apr-24 07:29N 59°43' E 019°04'0 0.0
2017-Apr-24 06:59N 59°43' E 019°04'0 0.0
2017-Apr-24 06:29N 59°43' E 019°04'0 0.0
2017-Apr-24 05:59N 59°43' E 019°04'0 0.0
2017-Apr-24 05:29N 59°43' E 019°04'0 0.0
2017-Apr-24 04:59N 59°43' E 019°04'0 0.0
2017-Apr-24 04:31N 59°43' E 019°04'3 5.5
2017-Apr-24 04:00N 59°44' E 019°09'815.2
2017-Apr-24 03:31N 59°46' E 019°24'815.1
2017-Apr-24 03:01N 59°45' E 019°38'815.1
2017-Apr-24 02:30N 59°42' E 019°53'914.8
2017-Apr-24 01:56N 59°37' E 020°06'5814.9
2017-Apr-23 22:01N 59°24' E 021°58'015.3
2017-Apr-23 22:00N 59°24' E 021°58'4715.8
2017-Apr-23 19:00N 59°22' E 023°31'1 0.2
2017-Apr-23 13:55N 59°23' E 023°32'916.7
2017-Apr-23 13:23N 59°23' E 023°15'4616.4
2017-Apr-23 10:35N 59°30' E 021°45'116.5
2017-Apr-23 10:30N 59°30' E 021°43'1016.6
2017-Apr-23 09:55N 59°33' E 021°24'1116.5
2017-Apr-23 09:14N 59°36' E 021°03'4216.2
2017-Apr-23 06:36N 59°45' E 019°40'216.7
2017-Apr-23 06:31N 59°45' E 019°37'816.4
2017-Apr-23 06:01N 59°46' E 019°21'815.5
2017-Apr-23 05:30N 59°43' E 019°06'1 2.0
2017-Apr-23 05:01N 59°43' E 019°04'0 0.0
2017-Apr-23 04:31N 59°43' E 019°04'2 4.5
2017-Apr-23 04:00N 59°44' E 019°08'714.8
2017-Apr-23 03:30N 59°46' E 019°22'713.6
2017-Apr-23 03:00N 59°47' E 019°36'4914.7
2017-Apr-22 23:40N 59°38' E 021°11'315.5
2017-Apr-22 23:29N 59°37' E 021°16'715.6
2017-Apr-22 23:00N 59°36' E 021°31'815.4
2017-Apr-22 22:31N 59°34' E 021°46'815.3
2017-Apr-22 22:00N 59°34' E 022°01'3915.3
2017-Apr-22 19:28N 59°28' E 023°17'715.0
2017-Apr-22 19:00N 59°26' E 023°30'3 0.2
2017-Apr-22 03:51N 59°23' E 023°30'813.3
2017-Apr-22 03:15N 59°23' E 023°15'3515.0
2017-Apr-22 00:55N 59°27' E 022°06'615.7
2017-Apr-22 00:30N 59°29' E 021°54'815.7
2017-Apr-22 00:00N 59°31' E 021°39'815.8
2017-Apr-21 23:30N 59°33' E 021°24'915.8
2017-Apr-21 22:56N 59°36' E 021°07'4515.5
2017-Apr-21 20:01N 59°45' E 019°39'016.0
2017-Apr-21 20:00N 59°45' E 019°39'815.7
2017-Apr-21 19:30N 59°46' E 019°23'815.5
2017-Apr-21 19:00N 59°44' E 019°09'2 4.5
2017-Apr-21 18:28N 59°43' E 019°04'0 0.0
2017-Apr-21 17:58N 59°43' E 019°04'0 0.0
2017-Apr-21 17:28N 59°43' E 019°04'0 0.0
2017-Apr-21 16:58N 59°43' E 019°04'0 0.0
2017-Apr-21 16:28N 59°43' E 019°04'0 0.0
2017-Apr-21 15:58N 59°43' E 019°04'0 0.0
2017-Apr-21 15:28N 59°43' E 019°04'0 0.0
2017-Apr-21 14:58N 59°43' E 019°04'0 0.0
2017-Apr-21 14:28N 59°43' E 019°04'0 0.0
2017-Apr-21 13:28N 59°43' E 019°04'0 0.0
2017-Apr-21 12:58N 59°43' E 019°04'0 0.0
2017-Apr-21 12:28N 59°43' E 019°04'0 0.0
2017-Apr-21 11:40N 59°43' E 019°04'0 0.0
2017-Apr-21 11:10N 59°43' E 019°04'0 0.0
2017-Apr-21 10:58N 59°43' E 019°04'0 0.0
2017-Apr-21 10:28N 59°43' E 019°04'0 0.0
2017-Apr-21 09:58N 59°43' E 019°04'0 0.0
2017-Apr-21 09:28N 59°43' E 019°04'0 0.0
2017-Apr-21 08:58N 59°43' E 019°04'0 0.0
2017-Apr-21 08:25N 59°43' E 019°04'0 0.0
2017-Apr-21 07:49N 59°43' E 019°04'0 0.0
2017-Apr-21 07:28N 59°43' E 019°04'0 0.0
2017-Apr-21 06:58N 59°43' E 019°04'0 0.0
2017-Apr-21 06:28N 59°43' E 019°04'0 0.0
2017-Apr-21 05:58N 59°43' E 019°04'0 0.0
2017-Apr-21 05:28N 59°43' E 019°04'0 0.0
2017-Apr-21 05:00N 59°43' E 019°04'2 4.4
2017-Apr-21 04:30N 59°44' E 019°08'815.6
2017-Apr-21 04:00N 59°46' E 019°23'815.6
2017-Apr-21 03:30N 59°45' E 019°38'815.2
2017-Apr-21 03:00N 59°42' E 019°53'109 4.7
2017-Apr-20 03:44N 59°23' E 023°24'514.0
2017-Apr-20 03:23N 59°23' E 023°14'4015.6
2017-Apr-20 00:48N 59°28' E 021°55'615.6
2017-Apr-20 00:25N 59°30' E 021°44'715.6
2017-Apr-19 23:58N 59°32' E 021°31'715.6
2017-Apr-19 23:30N 59°34' E 021°17'815.6
2017-Apr-19 23:00N 59°36' E 021°02'4315.4
2017-Apr-19 20:14N 59°45' E 019°40'415.6
2017-Apr-19 20:00N 59°46' E 019°33'715.2
2017-Apr-19 19:30N 59°45' E 019°18'713.6
2017-Apr-19 19:00N 59°43' E 019°04'0 0.4
2017-Apr-19 18:28N 59°43' E 019°04'0 0.0
2017-Apr-19 17:58N 59°43' E 019°04'0 0.0
2017-Apr-19 17:28N 59°43' E 019°04'0 0.0
2017-Apr-19 16:58N 59°43' E 019°04'0 0.0
2017-Apr-19 16:28N 59°43' E 019°04'0 0.0
2017-Apr-19 15:58N 59°43' E 019°04'0 0.0
2017-Apr-19 15:28N 59°43' E 019°04'0 0.0
2017-Apr-19 14:58N 59°43' E 019°04'0 0.0
2017-Apr-19 14:28N 59°43' E 019°04'0 0.0
2017-Apr-19 12:22N 59°43' E 019°04'0 0.0
2017-Apr-19 11:55N 59°43' E 019°04'0 0.0
2017-Apr-19 11:28N 59°43' E 019°04'0 0.0
2017-Apr-19 10:58N 59°43' E 019°04'0 0.0
2017-Apr-19 10:28N 59°43' E 019°04'0 0.0
2017-Apr-19 09:58N 59°43' E 019°04'0 0.0
2017-Apr-19 09:28N 59°43' E 019°04'0 0.0
2017-Apr-19 08:58N 59°43' E 019°04'0 0.0
2017-Apr-19 08:28N 59°43' E 019°04'0 0.0
2017-Apr-19 07:58N 59°43' E 019°04'0 0.0
2017-Apr-19 07:28N 59°43' E 019°04'0 0.0
2017-Apr-19 06:58N 59°43' E 019°04'0 0.0
2017-Apr-19 06:28N 59°43' E 019°04'0 0.0
2017-Apr-19 05:58N 59°43' E 019°04'1 1.3
2017-Apr-19 05:30N 59°43' E 019°05'714.0
2017-Apr-19 05:00N 59°45' E 019°18'815.7
2017-Apr-19 04:30N 59°45' E 019°34'816.1
2017-Apr-19 04:00N 59°43' E 019°49'106 7.6
2017-Apr-18 14:11N 59°23' E 023°14'4616.4
2017-Apr-18 11:22N 59°30' E 021°45'716.5
2017-Apr-18 10:58N 59°32' E 021°32'816.4
2017-Apr-18 10:28N 59°34' E 021°16'5416.0
2017-Apr-18 07:04N 59°46' E 019°31'116.5
2017-Apr-18 07:00N 59°46' E 019°30'815.8
2017-Apr-18 06:30N 59°44' E 019°14'510.4
2017-Apr-18 06:00N 59°43' E 019°04'0 0.0
2017-Apr-18 05:23N 59°43' E 019°04'0 0.0
2017-Apr-18 04:59N 59°43' E 019°04'0 0.0
2017-Apr-18 04:29N 59°43' E 019°04'3 6.2
2017-Apr-18 04:01N 59°44' E 019°10'816.4
2017-Apr-18 03:31N 59°46' E 019°25'816.4
2017-Apr-18 03:00N 59°48' E 019°41'4616.4
2017-Apr-18 00:11N 59°38' E 021°11'316.5
2017-Apr-18 00:01N 59°37' E 021°16'816.6
2017-Apr-17 23:31N 59°36' E 021°33'816.5
2017-Apr-17 23:01N 59°34' E 021°49'3816.5
2017-Apr-17 20:42N 59°29' E 023°03'516.2
2017-Apr-17 20:22N 59°28' E 023°13'616.3
2017-Apr-17 20:00N 59°27' E 023°25'5 1.1
2017-Apr-17 15:16N 59°24' E 023°33'516.6
2017-Apr-17 14:58N 59°24' E 023°23'4516.3
2017-Apr-17 12:12N 59°28' E 021°55'516.6
2017-Apr-17 11:54N 59°30' E 021°46'716.6
2017-Apr-17 11:30N 59°32' E 021°33'916.6
2017-Apr-17 10:58N 59°34' E 021°16'5016.2
2017-Apr-17 07:53N 59°45' E 019°40'616.4
2017-Apr-17 07:30N 59°46' E 019°28'816.0
2017-Apr-17 07:00N 59°44' E 019°12'4 8.3
2017-Apr-17 06:30N 59°43' E 019°04'0 0.0
2017-Apr-17 06:00N 59°43' E 019°04'0 0.0
2017-Apr-17 05:30N 59°43' E 019°04'0 0.0
2017-Apr-17 05:00N 59°43' E 019°04'0 0.0
2017-Apr-17 04:30N 59°43' E 019°04'2 4.5
2017-Apr-17 04:01N 59°44' E 019°08'714.3
2017-Apr-17 03:30N 59°46' E 019°22'714.1
2017-Apr-17 03:00N 59°45' E 019°36'715.0
2017-Apr-17 02:30N 59°43' E 019°50'  
Track history (hours):
 
Tides and Currents Weather Stations Pressure Air Temp Water Temp Dewpoint Dewpoint Depression Visibility Wind Speed Wind Dir Waves Ship Positions

Regal Star

Last reported at 2017-Apr-25 04:50 UTC. Time now 2017-Apr-25 20:27 UTC.
Position N 59°23' E 023°31'.

Length 157 m; draft 5.9 m.

Type: Ship (hazmat cat D). MMSI: 276554000.

Date/timePositionNaut miles runAvg speedWind from/ knotsBaromVisibWave heightAir tempDewpointWater temp
2017-Apr-25 04:50N 59°23' E 023°31'11913.8
2017-Apr-24 20:14N 59°45' E 019°41'413.8
2017-Apr-24 19:59N 59°46' E 019°34'714.1
2017-Apr-24 19:30N 59°46' E 019°20'714.6
2017-Apr-24 19:00N 59°43' E 019°07'1 2.4
2017-Apr-24 18:29N 59°43' E 019°04'0 0.0
2017-Apr-24 17:59N 59°43' E 019°04'0 0.0
2017-Apr-24 17:29N 59°43' E 019°04'0 0.0
2017-Apr-24 16:59N 59°43' E 019°04'0 0.0
2017-Apr-24 16:29N 59°43' E 019°04'0 0.0
2017-Apr-24 15:59N 59°43' E 019°04'0 0.0
2017-Apr-24 15:29N 59°43' E 019°04'0 0.0
2017-Apr-24 14:59N 59°43' E 019°04'0 0.0
2017-Apr-24 14:29N 59°43' E 019°04'0 0.0
2017-Apr-24 11:14N 59°43' E 019°04'0 0.0
2017-Apr-24 10:59N 59°43' E 019°04'0 0.0
2017-Apr-24 10:26N 59°43' E 019°04'0 0.0
2017-Apr-24 09:59N 59°43' E 019°04'0 0.0
2017-Apr-24 09:26N 59°43' E 019°04'0 0.0
2017-Apr-24 08:59N 59°43' E 019°04'0 0.0
2017-Apr-24 08:29N 59°43' E 019°04'0 0.0
2017-Apr-24 07:59N 59°43' E 019°04'0 0.0
2017-Apr-24 07:29N 59°43' E 019°04'0 0.0
2017-Apr-24 06:59N 59°43' E 019°04'0 0.0
2017-Apr-24 06:29N 59°43' E 019°04'0 0.0
2017-Apr-24 05:59N 59°43' E 019°04'0 0.0
2017-Apr-24 05:29N 59°43' E 019°04'0 0.0
2017-Apr-24 04:59N 59°43' E 019°04'0 0.0
2017-Apr-24 04:31N 59°43' E 019°04'3 5.5
2017-Apr-24 04:00N 59°44' E 019°09'815.2
2017-Apr-24 03:31N 59°46' E 019°24'815.1
2017-Apr-24 03:01N 59°45' E 019°38'815.1
2017-Apr-24 02:30N 59°42' E 019°53'914.8
2017-Apr-24 01:56N 59°37' E 020°06'5814.9
2017-Apr-23 22:01N 59°24' E 021°58'015.3
2017-Apr-23 22:00N 59°24' E 021°58'4715.8
2017-Apr-23 19:00N 59°22' E 023°31'1 0.2
2017-Apr-23 13:55N 59°23' E 023°32'916.7
2017-Apr-23 13:23N 59°23' E 023°15'4616.4
2017-Apr-23 10:35N 59°30' E 021°45'116.5
2017-Apr-23 10:30N 59°30' E 021°43'1016.6
2017-Apr-23 09:55N 59°33' E 021°24'1116.5
2017-Apr-23 09:14N 59°36' E 021°03'4216.2
2017-Apr-23 06:36N 59°45' E 019°40'216.7
2017-Apr-23 06:31N 59°45' E 019°37'816.4
2017-Apr-23 06:01N 59°46' E 019°21'815.5
2017-Apr-23 05:30N 59°43' E 019°06'1 2.0
2017-Apr-23 05:01N 59°43' E 019°04'0 0.0
2017-Apr-23 04:31N 59°43' E 019°04'2 4.5
2017-Apr-23 04:00N 59°44' E 019°08'714.8
2017-Apr-23 03:30N 59°46' E 019°22'713.6
2017-Apr-23 03:00N 59°47' E 019°36'4914.7
2017-Apr-22 23:40N 59°38' E 021°11'315.5
2017-Apr-22 23:29N 59°37' E 021°16'715.6
2017-Apr-22 23:00N 59°36' E 021°31'815.4
2017-Apr-22 22:31N 59°34' E 021°46'815.3
2017-Apr-22 22:00N 59°34' E 022°01'3915.3
2017-Apr-22 19:28N 59°28' E 023°17'715.0
2017-Apr-22 19:00N 59°26' E 023°30'3 0.2
2017-Apr-22 03:51N 59°23' E 023°30'813.3
2017-Apr-22 03:15N 59°23' E 023°15'3515.0
2017-Apr-22 00:55N 59°27' E 022°06'615.7
2017-Apr-22 00:30N 59°29' E 021°54'815.7
2017-Apr-22 00:00N 59°31' E 021°39'815.8
2017-Apr-21 23:30N 59°33' E 021°24'915.8
2017-Apr-21 22:56N 59°36' E 021°07'4515.5
2017-Apr-21 20:01N 59°45' E 019°39'016.0
2017-Apr-21 20:00N 59°45' E 019°39'815.7
2017-Apr-21 19:30N 59°46' E 019°23'815.5
2017-Apr-21 19:00N 59°44' E 019°09'2 4.5
2017-Apr-21 18:28N 59°43' E 019°04'0 0.0
2017-Apr-21 17:58N 59°43' E 019°04'0 0.0
2017-Apr-21 17:28N 59°43' E 019°04'0 0.0
2017-Apr-21 16:58N 59°43' E 019°04'0 0.0
2017-Apr-21 16:28N 59°43' E 019°04'0 0.0
2017-Apr-21 15:58N 59°43' E 019°04'0 0.0
2017-Apr-21 15:28N 59°43' E 019°04'0 0.0
2017-Apr-21 14:58N 59°43' E 019°04'0 0.0
2017-Apr-21 14:28N 59°43' E 019°04'0 0.0
2017-Apr-21 13:28N 59°43' E 019°04'0 0.0
2017-Apr-21 12:58N 59°43' E 019°04'0 0.0
2017-Apr-21 12:28N 59°43' E 019°04'0 0.0
2017-Apr-21 11:40N 59°43' E 019°04'0 0.0
2017-Apr-21 11:10N 59°43' E 019°04'0 0.0
2017-Apr-21 10:58N 59°43' E 019°04'0 0.0
2017-Apr-21 10:28N 59°43' E 019°04'0 0.0
2017-Apr-21 09:58N 59°43' E 019°04'0 0.0
2017-Apr-21 09:28N 59°43' E 019°04'0 0.0
2017-Apr-21 08:58N 59°43' E 019°04'0 0.0
2017-Apr-21 08:25N 59°43' E 019°04'0 0.0
2017-Apr-21 07:49N 59°43' E 019°04'0 0.0
2017-Apr-21 07:28N 59°43' E 019°04'0 0.0
2017-Apr-21 06:58N 59°43' E 019°04'0 0.0
2017-Apr-21 06:28N 59°43' E 019°04'0 0.0
2017-Apr-21 05:58N 59°43' E 019°04'0 0.0
2017-Apr-21 05:28N 59°43' E 019°04'0 0.0
2017-Apr-21 05:00N 59°43' E 019°04'2 4.4
2017-Apr-21 04:30N 59°44' E 019°08'815.6
2017-Apr-21 04:00N 59°46' E 019°23'815.6
2017-Apr-21 03:30N 59°45' E 019°38'815.2
2017-Apr-21 03:00N 59°42' E 019°53'109 4.7
2017-Apr-20 03:44N 59°23' E 023°24'514.0
2017-Apr-20 03:23N 59°23' E 023°14'4015.6
2017-Apr-20 00:48N 59°28' E 021°55'615.6
2017-Apr-20 00:25N 59°30' E 021°44'715.6
2017-Apr-19 23:58N 59°32' E 021°31'715.6
2017-Apr-19 23:30N 59°34' E 021°17'815.6
2017-Apr-19 23:00N 59°36' E 021°02'4315.4
2017-Apr-19 20:14N 59°45' E 019°40'415.6
2017-Apr-19 20:00N 59°46' E 019°33'715.2
2017-Apr-19 19:30N 59°45' E 019°18'713.6
2017-Apr-19 19:00N 59°43' E 019°04'0 0.4
2017-Apr-19 18:28N 59°43' E 019°04'0 0.0
2017-Apr-19 17:58N 59°43' E 019°04'0 0.0
2017-Apr-19 17:28N 59°43' E 019°04'0 0.0
2017-Apr-19 16:58N 59°43' E 019°04'0 0.0
2017-Apr-19 16:28N 59°43' E 019°04'0 0.0
2017-Apr-19 15:58N 59°43' E 019°04'0 0.0
2017-Apr-19 15:28N 59°43' E 019°04'0 0.0
2017-Apr-19 14:58N 59°43' E 019°04'0 0.0
2017-Apr-19 14:28N 59°43' E 019°04'0 0.0
2017-Apr-19 12:22N 59°43' E 019°04'0 0.0
2017-Apr-19 11:55N 59°43' E 019°04'0 0.0
2017-Apr-19 11:28N 59°43' E 019°04'0 0.0
2017-Apr-19 10:58N 59°43' E 019°04'0 0.0
2017-Apr-19 10:28N 59°43' E 019°04'0 0.0
2017-Apr-19 09:58N 59°43' E 019°04'0 0.0
2017-Apr-19 09:28N 59°43' E 019°04'0 0.0
2017-Apr-19 08:58N 59°43' E 019°04'0 0.0
2017-Apr-19 08:28N 59°43' E 019°04'0 0.0
2017-Apr-19 07:58N 59°43' E 019°04'0 0.0
2017-Apr-19 07:28N 59°43' E 019°04'0 0.0
2017-Apr-19 06:58N 59°43' E 019°04'0 0.0
2017-Apr-19 06:28N 59°43' E 019°04'0 0.0
2017-Apr-19 05:58N 59°43' E 019°04'1 1.3
2017-Apr-19 05:30N 59°43' E 019°05'714.0
2017-Apr-19 05:00N 59°45' E 019°18'815.7
2017-Apr-19 04:30N 59°45' E 019°34'816.1
2017-Apr-19 04:00N 59°43' E 019°49'106 7.6
2017-Apr-18 14:11N 59°23' E 023°14'4616.4
2017-Apr-18 11:22N 59°30' E 021°45'716.5
2017-Apr-18 10:58N 59°32' E 021°32'816.4
2017-Apr-18 10:28N 59°34' E 021°16'5416.0
2017-Apr-18 07:04N 59°46' E 019°31'116.5
2017-Apr-18 07:00N 59°46' E 019°30'815.8
2017-Apr-18 06:30N 59°44' E 019°14'510.4
2017-Apr-18 06:00N 59°43' E 019°04'0 0.0
2017-Apr-18 05:23N 59°43' E 019°04'0 0.0
2017-Apr-18 04:59N 59°43' E 019°04'0 0.0
2017-Apr-18 04:29N 59°43' E 019°04'3 6.2
2017-Apr-18 04:01N 59°44' E 019°10'816.4
2017-Apr-18 03:31N 59°46' E 019°25'816.4
2017-Apr-18 03:00N 59°48' E 019°41'4616.4
2017-Apr-18 00:11N 59°38' E 021°11'316.5
2017-Apr-18 00:01N 59°37' E 021°16'816.6
2017-Apr-17 23:31N 59°36' E 021°33'816.5
2017-Apr-17 23:01N 59°34' E 021°49'3816.5
2017-Apr-17 20:42N 59°29' E 023°03'516.2
2017-Apr-17 20:22N 59°28' E 023°13'616.3
2017-Apr-17 20:00N 59°27' E 023°25'5 1.1
2017-Apr-17 15:16N 59°24' E 023°33'516.6
2017-Apr-17 14:58N 59°24' E 023°23'4516.3
2017-Apr-17 12:12N 59°28' E 021°55'516.6
2017-Apr-17 11:54N 59°30' E 021°46'716.6
2017-Apr-17 11:30N 59°32' E 021°33'916.6
2017-Apr-17 10:58N 59°34' E 021°16'5016.2
2017-Apr-17 07:53N 59°45' E 019°40'616.4
2017-Apr-17 07:30N 59°46' E 019°28'816.0
2017-Apr-17 07:00N 59°44' E 019°12'4 8.3
2017-Apr-17 06:30N 59°43' E 019°04'0 0.0
2017-Apr-17 06:00N 59°43' E 019°04'0 0.0
2017-Apr-17 05:30N 59°43' E 019°04'0 0.0
2017-Apr-17 05:00N 59°43' E 019°04'0 0.0
2017-Apr-17 04:30N 59°43' E 019°04'2 4.5
2017-Apr-17 04:01N 59°44' E 019°08'714.3
2017-Apr-17 03:30N 59°46' E 019°22'714.1
2017-Apr-17 03:00N 59°45' E 019°36'715.0
2017-Apr-17 02:30N 59°43' E 019°50'  

Dump ship's entire track history